createdAt,value
2022-12-22T00:01:09.032Z,99417.78
2022-12-22T00:05:41.034Z,99416.97
2022-12-22T00:10:01.345Z,99421.06
2022-12-22T00:14:21.775Z,99418.16
2022-12-22T00:18:41.941Z,99410.50
2022-12-22T00:23:02.031Z,99406.63
2022-12-22T00:27:22.442Z,99428.16
2022-12-22T00:31:42.959Z,99420.63
2022-12-22T00:36:03.084Z,99413.53
2022-12-22T00:40:35.595Z,99409.91
2022-12-22T00:44:55.954Z,99396.53
2022-12-22T00:49:17.003Z,99397.00
2022-12-22T00:53:37.253Z,99395.81
2022-12-22T00:57:57.881Z,99386.06
2022-12-22T01:02:18.539Z,99375.72
2022-12-22T01:06:39.228Z,99375.25
2022-12-22T01:10:59.228Z,99361.59
2022-12-22T01:15:19.715Z,99364.19
2022-12-22T01:19:40.257Z,99370.09
2022-12-22T01:24:00.895Z,99371.69
2022-12-22T01:28:24.266Z,99347.28
2022-12-22T01:32:44.826Z,99359.28
2022-12-22T01:37:05.097Z,99338.59
2022-12-22T01:41:29.060Z,99335.06
2022-12-22T01:45:51.953Z,99331.88
2022-12-22T01:50:12.276Z,99332.44
2022-12-22T01:54:32.982Z,99327.50
2022-12-22T01:58:55.709Z,99316.84
2022-12-22T02:03:16.168Z,99326.34
2022-12-22T02:08:01.129Z,99293.66
2022-12-22T02:12:30.700Z,99311.38
2022-12-22T02:16:58.728Z,99296.50
2022-12-22T02:21:24.295Z,99301.28
2022-12-22T02:25:51.501Z,99288.94
2022-12-22T02:30:17.627Z,99289.88
2022-12-22T02:34:37.852Z,99276.13
2022-12-22T02:39:18.397Z,99283.59
2022-12-22T02:44:00.873Z,99266.91
2022-12-22T02:48:23.675Z,99263.00
2022-12-22T02:52:49.065Z,99257.75
2022-12-22T02:57:09.139Z,99256.47
2022-12-22T03:01:35.945Z,99253.53
2022-12-22T03:05:56.527Z,99258.41
2022-12-22T03:10:23.808Z,99240.66
2022-12-22T03:14:50.995Z,99232.41
2022-12-22T03:19:17.828Z,99235.81
2022-12-22T03:23:38.165Z,99217.56
2022-12-22T03:27:40.076Z,99207.66
2022-12-22T03:31:41.861Z,99191.88
2022-12-22T03:35:44.403Z,99190.00
2022-12-22T03:39:46.140Z,99178.91
2022-12-22T03:44:06.178Z,99157.75
2022-12-22T03:48:07.950Z,99171.25
2022-12-22T03:52:09.726Z,99165.00
2022-12-22T03:56:11.508Z,99166.22
2022-12-22T04:00:14.000Z,99167.81
2022-12-22T04:04:16.967Z,99168.91
2022-12-22T04:08:18.748Z,99163.47
2022-12-22T04:12:39.061Z,99154.75
2022-12-22T04:16:41.016Z,99163.59
2022-12-22T04:20:42.890Z,99156.69
2022-12-22T04:24:44.643Z,99147.38
2022-12-22T04:28:46.979Z,99142.09
2022-12-22T04:32:48.856Z,99137.41
2022-12-22T04:36:50.597Z,99137.63
2022-12-22T04:40:52.483Z,99119.03
2022-12-22T04:44:54.363Z,99125.59
2022-12-22T04:49:00.006Z,99109.75
2022-12-22T04:53:02.949Z,99117.22
2022-12-22T04:57:04.813Z,99102.22
2022-12-22T05:01:15.772Z,99109.00
2022-12-22T05:05:17.731Z,99100.78
2022-12-22T05:09:19.713Z,99092.13
2022-12-22T05:13:21.528Z,99077.94
2022-12-22T05:17:23.437Z,99068.25
2022-12-22T05:21:25.212Z,99080.50
2022-12-22T05:25:32.911Z,99071.97
2022-12-22T05:29:37.037Z,99087.03
2022-12-22T05:33:38.928Z,99068.34
2022-12-22T05:37:40.832Z,99048.91
2022-12-22T05:41:42.621Z,99048.19
2022-12-22T05:45:45.737Z,99046.03
2022-12-22T05:49:49.733Z,99052.88
2022-12-22T05:53:51.815Z,99044.28
2022-12-22T05:57:53.646Z,99055.84
2022-12-22T06:01:55.377Z,99035.69
2022-12-22T06:05:57.935Z,99050.53
2022-12-22T06:09:59.676Z,99051.47
2022-12-22T06:14:01.453Z,99035.66
2022-12-22T06:18:03.381Z,99041.00
2022-12-22T06:22:05.559Z,99025.19
2022-12-22T06:26:07.345Z,99034.63
2022-12-22T06:30:09.920Z,99025.34
2022-12-22T06:34:11.856Z,99027.41
2022-12-22T06:38:13.698Z,99031.38
2022-12-22T06:42:34.443Z,99023.72
2022-12-22T06:46:36.257Z,99026.84
2022-12-22T06:50:38.158Z,99029.59
2022-12-22T06:54:40.176Z,99025.63
2022-12-22T06:58:42.053Z,99039.81
2022-12-22T07:02:44.411Z,99017.31
2022-12-22T07:06:49.740Z,99010.91
2022-12-22T07:10:57.900Z,98999.19
2022-12-22T07:14:59.884Z,98993.44
2022-12-22T07:19:01.699Z,99007.47
2022-12-22T07:23:03.583Z,98991.38
2022-12-22T07:27:05.560Z,98982.75
2022-12-22T07:31:11.131Z,98973.63
2022-12-22T07:35:13.055Z,98966.38
2022-12-22T07:39:15.153Z,98976.59
2022-12-22T07:43:19.347Z,98961.41
2022-12-22T07:47:34.937Z,98964.53
2022-12-22T07:51:38.617Z,98959.69
2022-12-22T07:55:43.750Z,98951.25
2022-12-22T08:00:04.192Z,98956.44
2022-12-22T08:04:12.681Z,98948.03
2022-12-22T08:08:16.318Z,98950.00
2022-12-22T08:12:18.189Z,98948.94
2022-12-22T08:16:21.487Z,98939.56
2022-12-22T08:20:23.373Z,98916.31
2022-12-22T08:24:25.584Z,98914.09
2022-12-22T08:28:27.521Z,98915.38
2022-12-22T08:32:29.381Z,98891.59
2022-12-22T08:36:31.722Z,98887.94
2022-12-22T08:40:33.568Z,98880.22
2022-12-22T08:44:36.268Z,98872.69
2022-12-22T08:48:38.020Z,98865.59
2022-12-22T08:52:42.632Z,98867.31
2022-12-22T08:56:44.971Z,98860.09
2022-12-22T09:00:46.949Z,98849.75
2022-12-22T09:04:58.357Z,98846.22
2022-12-22T09:09:06.723Z,98840.06
2022-12-22T09:13:08.530Z,98841.81
2022-12-22T09:17:10.351Z,98830.25
2022-12-22T09:21:15.259Z,98825.63
2022-12-22T09:25:19.841Z,98820.28
2022-12-22T09:29:25.097Z,98821.66
2022-12-22T09:33:45.845Z,98822.28
2022-12-22T09:37:50.388Z,98806.28
2022-12-22T09:41:56.531Z,98813.28
2022-12-22T09:45:58.625Z,98789.53
2022-12-22T09:50:02.882Z,98790.59
2022-12-22T09:54:07.020Z,98775.00
2022-12-22T09:58:28.059Z,98772.16
2022-12-22T10:02:58.241Z,98765.81
2022-12-22T10:07:34.438Z,98760.22
2022-12-22T10:11:36.323Z,98734.69
2022-12-22T10:15:40.947Z,98731.50
2022-12-22T10:19:43.129Z,98719.34
2022-12-22T10:23:46.147Z,98718.00
2022-12-22T10:28:02.029Z,98708.78
2022-12-22T10:32:20.669Z,98705.41
2022-12-22T10:36:32.810Z,98708.75
2022-12-22T10:40:36.595Z,98724.97
2022-12-22T10:44:38.625Z,98715.41
2022-12-22T10:48:40.646Z,98711.22
2022-12-22T10:52:42.611Z,98694.63
2022-12-22T10:56:47.011Z,98699.13
2022-12-22T11:01:03.061Z,98702.19
2022-12-22T11:05:10.120Z,98683.81
2022-12-22T11:09:32.517Z,98691.34
2022-12-22T11:13:54.921Z,98675.47
2022-12-22T11:18:21.213Z,98669.63
2022-12-22T11:22:41.633Z,98670.94
2022-12-22T11:27:20.510Z,98666.78
2022-12-22T11:32:06.152Z,98646.59
2022-12-22T11:37:00.608Z,98654.19
2022-12-22T11:41:28.874Z,98647.44
2022-12-22T11:46:24.160Z,98629.44
2022-12-22T11:51:11.400Z,98638.84
2022-12-22T11:55:34.589Z,98629.75
2022-12-22T11:59:43.875Z,98608.00
2022-12-22T12:04:29.808Z,98626.06
2022-12-22T12:08:54.911Z,98623.19
2022-12-22T12:13:37.121Z,98618.19
2022-12-22T12:18:03.962Z,98616.44
2022-12-22T12:22:08.852Z,98619.97
2022-12-22T12:27:12.031Z,98611.78
2022-12-22T12:31:14.473Z,98617.84
2022-12-22T12:35:53.328Z,98616.91
2022-12-22T12:40:51.265Z,98615.28
2022-12-22T12:44:53.569Z,98629.56
2022-12-22T12:48:56.545Z,98617.00
2022-12-22T12:52:58.257Z,98618.31
2022-12-22T12:57:11.302Z,98617.13
2022-12-22T13:01:54.220Z,98615.88
2022-12-22T13:06:03.580Z,98614.72
2022-12-22T13:10:20.257Z,98612.28
2022-12-22T13:14:57.409Z,98610.19
2022-12-22T13:19:00.168Z,98627.66
2022-12-22T13:23:04.318Z,98621.97
2022-12-22T13:27:07.001Z,98612.28
2022-12-22T13:31:25.162Z,98617.16
2022-12-22T13:35:46.417Z,98627.25
2022-12-22T13:40:30.971Z,98623.00
2022-12-22T13:44:33.030Z,98622.69
2022-12-22T13:48:45.676Z,98623.41
2022-12-22T13:52:47.981Z,98621.72
2022-12-22T13:56:57.927Z,98621.34
2022-12-22T14:01:11.866Z,98624.59
2022-12-22T14:05:15.159Z,98631.28
2022-12-22T14:09:20.106Z,98629.13
2022-12-22T14:13:33.586Z,98621.88
2022-12-22T14:17:37.879Z,98618.88
2022-12-22T14:21:40.748Z,98618.69
2022-12-22T14:25:43.409Z,98630.09
2022-12-22T14:29:45.170Z,98633.38
2022-12-22T14:34:05.133Z,98641.22
2022-12-22T14:38:12.685Z,98629.13
2022-12-22T14:42:14.663Z,98644.44
2022-12-22T14:46:18.153Z,98647.66
2022-12-22T14:50:27.483Z,98649.03
2022-12-22T14:54:29.813Z,98661.41
2022-12-22T14:58:33.698Z,98668.22
2022-12-22T15:02:40.297Z,98665.22
2022-12-22T15:06:49.331Z,98674.94
2022-12-22T15:10:51.165Z,98691.34
2022-12-22T15:14:53.067Z,98701.44
2022-12-22T15:18:55.022Z,98709.38
2022-12-22T15:23:02.935Z,98721.44
2022-12-22T15:27:05.026Z,98723.88
2022-12-22T15:31:14.268Z,98744.81
2022-12-22T15:35:19.573Z,98765.72
2022-12-22T15:39:21.839Z,98786.88
2022-12-22T15:47:52.808Z,98823.28
2022-12-22T15:51:58.803Z,98826.19
2022-12-22T15:56:01.074Z,98842.69
2022-12-22T16:00:03.550Z,98842.56
2022-12-22T16:04:05.707Z,98844.88
2022-12-22T16:08:18.340Z,98879.25
2022-12-22T16:12:21.014Z,98867.63
2022-12-22T16:16:23.174Z,98884.16
2022-12-22T16:20:26.220Z,98898.22
2022-12-22T16:24:34.701Z,98904.47
2022-12-22T16:28:37.204Z,98915.50
2022-12-22T16:32:40.181Z,98929.22
2022-12-22T16:36:42.062Z,98935.72
2022-12-22T16:40:49.248Z,98949.00
2022-12-22T16:45:00.382Z,98962.69
2022-12-22T16:49:13.670Z,98964.00
2022-12-22T16:53:18.290Z,98981.28
2022-12-22T16:57:20.200Z,98986.00
2022-12-22T17:01:37.754Z,98980.34
2022-12-22T17:05:46.521Z,98995.84
2022-12-22T17:09:52.967Z,98989.13
2022-12-22T17:13:56.508Z,98997.47
2022-12-22T17:17:58.451Z,99003.16
2022-12-22T17:22:00.428Z,99010.38
2022-12-22T17:26:08.019Z,99020.03
2022-12-22T17:30:22.431Z,99014.63
2022-12-22T17:34:26.813Z,99021.00
2022-12-22T17:38:32.097Z,99025.88
2022-12-22T17:42:35.352Z,99017.25
2022-12-22T17:46:40.117Z,99022.28
2022-12-22T17:50:45.970Z,99021.97
2022-12-22T17:55:01.648Z,99025.84
2022-12-22T17:59:03.728Z,99028.16
2022-12-22T18:03:05.902Z,99031.75
2022-12-22T18:07:10.737Z,99050.66
2022-12-22T18:11:13.964Z,99056.53
2022-12-22T18:15:19.914Z,99065.78
2022-12-22T18:19:23.598Z,99061.59
2022-12-22T18:23:46.086Z,99076.13
2022-12-22T18:27:58.590Z,99075.31
2022-12-22T18:32:00.621Z,99076.75
2022-12-22T18:36:02.476Z,99073.84
2022-12-22T18:40:05.106Z,99080.38
2022-12-22T18:44:19.383Z,99065.38
2022-12-22T18:48:21.212Z,99081.16
2022-12-22T18:52:26.348Z,99067.94
2022-12-22T18:56:28.222Z,99063.53
2022-12-22T19:00:31.381Z,99060.09
2022-12-22T19:04:33.700Z,99073.47
2022-12-22T19:08:40.386Z,99065.75
2022-12-22T19:12:52.611Z,99074.56
2022-12-22T19:16:54.925Z,99068.19
2022-12-22T19:20:57.032Z,99072.19
2022-12-22T19:24:59.437Z,99080.44
2022-12-22T19:29:01.497Z,99076.00
2022-12-22T19:33:15.973Z,99077.97
2022-12-22T19:37:18.703Z,99068.16
2022-12-22T19:41:52.009Z,99094.94
2022-12-22T19:45:55.183Z,99074.59
2022-12-22T19:49:59.809Z,99078.66
2022-12-22T19:54:01.739Z,99072.19
2022-12-22T19:58:03.729Z,99074.94
2022-12-22T20:02:21.412Z,99067.25
2022-12-22T20:06:23.570Z,99085.94
2022-12-22T20:10:26.929Z,99072.41
2022-12-22T20:14:28.804Z,99073.94
2022-12-22T20:18:31.686Z,99070.22
2022-12-22T20:22:35.814Z,99081.28
2022-12-22T20:26:40.328Z,99072.34
2022-12-22T20:30:42.247Z,99067.97
2022-12-22T20:34:44.800Z,99058.69
2022-12-22T20:38:52.221Z,99056.53
2022-12-22T20:42:58.394Z,99054.47
2022-12-22T20:47:00.504Z,99050.38
2022-12-22T20:51:04.444Z,99041.59
2022-12-22T20:55:06.489Z,99049.13
2022-12-22T20:59:20.900Z,99068.34
2022-12-22T21:03:23.102Z,99068.03
2022-12-22T21:07:25.106Z,99063.81
2022-12-22T21:11:27.535Z,99067.72
2022-12-22T21:15:29.375Z,99051.41
2022-12-22T21:19:31.139Z,99057.94
2022-12-22T21:23:32.904Z,99047.50
2022-12-22T21:27:34.631Z,99049.13
2022-12-22T21:31:36.731Z,99054.84
2022-12-22T21:35:38.684Z,99045.16
2022-12-22T21:39:45.070Z,99049.41
2022-12-22T21:43:47.030Z,99045.66
2022-12-22T21:47:49.307Z,99035.69
2022-12-22T21:51:55.121Z,99025.94
2022-12-22T21:55:57.141Z,99024.31
2022-12-22T21:59:59.160Z,99020.75
2022-12-22T22:04:01.033Z,99014.56
2022-12-22T22:08:05.057Z,99016.50
2022-12-22T22:12:39.374Z,99009.53
2022-12-22T22:16:41.193Z,98999.91
2022-12-22T22:20:43.083Z,98989.47
2022-12-22T22:24:44.841Z,98993.38
2022-12-22T22:28:46.650Z,98983.59
2022-12-22T22:32:48.810Z,98982.41
2022-12-22T22:36:51.598Z,98986.78
2022-12-22T22:40:53.385Z,98961.94
2022-12-22T22:44:55.130Z,98964.19
2022-12-22T22:48:58.612Z,98975.88
2022-12-22T22:53:00.400Z,98958.66
2022-12-22T22:57:02.160Z,98940.13
2022-12-22T23:01:06.551Z,98934.41
2022-12-22T23:05:08.718Z,98940.03
2022-12-22T23:09:10.609Z,98950.75
2022-12-22T23:13:12.345Z,98948.94
2022-12-22T23:17:14.118Z,98947.72
2022-12-22T23:21:15.853Z,98949.22
2022-12-22T23:25:17.566Z,98937.03
2022-12-22T23:29:19.473Z,98943.69
2022-12-22T23:33:21.521Z,98932.00
2022-12-22T23:37:23.277Z,98937.44
2022-12-22T23:41:25.138Z,98921.53
2022-12-22T23:45:30.983Z,98938.59
2022-12-22T23:49:32.753Z,98927.97
2022-12-22T23:53:34.981Z,98900.31
2022-12-22T23:57:36.743Z,98912.56
